Time;durP1;ratioP1;P1;durP2;ratioP2;P2;SDS_P1;SDS_P2;PMS_P1;PMS_P2;Temp;Humidity;BMP_temperature;BMP_pressure;BME280_temperature;BME280_humidity;BME280_pressure;Samples;Min_cycle;Max_cycle;Signal;HPM_P1;HPM_P2
2023/03/24 00:00:57;;;;;;;5.47;4.10;;;9.20;99.90;;;;;;6213063;23;20361;-83
2023/03/24 00:03:24;;;;;;;7.93;4.80;;;9.20;99.90;;;;;;6214256;23;20330;-83
2023/03/24 00:06:00;;;;;;;8.25;5.35;;;9.20;99.90;;;;;;6187400;23;20349;-84
2023/03/24 00:08:29;;;;;;;8.07;5.40;;;8.90;99.90;;;;;;6213537;23;20419;-84
2023/03/24 00:11:00;;;;;;;5.97;4.75;;;8.90;99.90;;;;;;6213892;23;20334;-84
2023/03/24 00:13:27;;;;;;;6.70;5.00;;;9.00;99.90;;;;;;6213269;23;20357;-85
2023/03/24 00:15:54;;;;;;;8.23;5.43;;;9.00;99.90;;;;;;6213503;23;20338;-84
2023/03/24 00:18:21;;;;;;;6.45;4.85;;;8.90;99.90;;;;;;6161186;23;20697;-84
2023/03/24 00:20:48;;;;;;;8.23;5.32;;;8.90;99.90;;;;;;6213884;23;20694;-84
2023/03/24 00:23:14;;;;;;;8.27;4.90;;;8.90;99.90;;;;;;6215856;23;20486;-84
2023/03/24 00:25:40;;;;;;;7.18;5.80;;;8.90;99.90;;;;;;6186634;23;20448;-83
2023/03/24 00:28:06;;;;;;;6.93;5.40;;;8.90;99.90;;;;;;6214154;23;20420;-82
2023/03/24 00:30:33;;;;;;;7.55;5.40;;;8.90;99.90;;;;;;6188743;23;20404;-83
2023/03/24 00:33:00;;;;;;;8.68;5.95;;;9.00;99.90;;;;;;6216074;23;20413;-82
2023/03/24 00:35:27;;;;;;;9.88;6.30;;;8.90;99.90;;;;;;6219272;23;20816;-84
2023/03/24 00:37:53;;;;;;;8.17;6.30;;;8.80;99.90;;;;;;6204943;23;20342;-82
2023/03/24 00:40:20;;;;;;;8.77;6.13;;;8.80;99.90;;;;;;6238873;22;20376;-83
2023/03/24 00:42:47;;;;;;;10.30;6.32;;;8.80;99.90;;;;;;6201703;23;20362;-82
2023/03/24 00:45:18;;;;;;;6.82;6.07;;;8.80;99.90;;;;;;6214432;23;20333;-83
2023/03/24 00:47:44;;;;;;;8.02;6.30;;;8.90;99.90;;;;;;6212929;23;20345;-83
2023/03/24 00:50:25;;;;;;;10.98;6.45;;;8.90;99.90;;;;;;6212810;23;20356;-82
2023/03/24 00:52:51;;;;;;;8.43;6.70;;;8.90;99.90;;;;;;6213801;23;20404;-82
2023/03/24 00:55:17;;;;;;;7.63;6.72;;;8.90;99.90;;;;;;6187080;23;20346;-84
2023/03/24 00:57:48;;;;;;;10.40;7.85;;;8.90;99.90;;;;;;6212777;23;20430;-83
2023/03/24 01:00:17;;;;;;;10.70;6.85;;;9.00;99.90;;;;;;6213163;23;20385;-83
2023/03/24 01:02:45;;;;;;;9.73;7.40;;;9.00;99.90;;;;;;6213951;23;20360;-83
2023/03/24 01:05:13;;;;;;;8.27;7.40;;;9.00;99.90;;;;;;6213437;23;20338;-83
2023/03/24 01:07:41;;;;;;;7.95;7.15;;;9.10;99.90;;;;;;6186764;23;21055;-83
2023/03/24 01:10:12;;;;;;;7.30;6.60;;;9.20;99.90;;;;;;6181297;23;20565;-83
2023/03/24 01:12:38;;;;;;;8.02;5.95;;;9.30;99.90;;;;;;6209800;23;20373;-83
2023/03/24 01:15:10;;;;;;;6.57;5.73;;;9.40;99.90;;;;;;6210173;23;20421;-83
2023/03/24 01:17:36;;;;;;;6.10;5.50;;;9.40;99.90;;;;;;6210229;23;20488;-83
2023/03/24 01:20:07;;;;;;;6.63;5.93;;;9.50;99.90;;;;;;6210643;23;20412;-84
2023/03/24 01:22:36;;;;;;;6.85;6.18;;;9.50;99.90;;;;;;6211268;23;20532;-85
2023/03/24 01:25:03;;;;;;;7.28;6.03;;;9.60;99.90;;;;;;6212019;23;20361;-84
2023/03/24 01:27:31;;;;;;;5.77;5.20;;;9.60;99.90;;;;;;6183793;23;20838;-83
2023/03/24 01:30:01;;;;;;;6.00;5.00;;;9.70;99.90;;;;;;6211952;23;20373;-84
2023/03/24 01:32:28;;;;;;;6.30;4.82;;;9.70;99.90;;;;;;6184373;23;20361;-83
2023/03/24 01:34:53;;;;;;;6.00;4.60;;;9.70;99.90;;;;;;6212016;23;20346;-83
2023/03/24 01:37:19;;;;;;;4.78;4.35;;;9.80;99.90;;;;;;6185050;23;20365;-82
2023/03/24 01:39:45;;;;;;;5.65;4.65;;;9.80;99.90;;;;;;6185392;23;20832;-82
2023/03/24 01:42:18;;;;;;;4.77;4.33;;;9.90;99.90;;;;;;6212203;23;20357;-82
2023/03/24 01:44:49;;;;;;;5.75;4.28;;;9.90;99.90;;;;;;6186704;23;20475;-83
2023/03/24 01:47:16;;;;;;;5.00;4.30;;;9.80;99.90;;;;;;6214113;23;20369;-84
2023/03/24 01:49:51;;;;;;;5.07;4.57;;;9.90;99.90;;;;;;6216579;23;20346;-84
2023/03/24 01:52:23;;;;;;;5.40;4.80;;;9.80;99.90;;;;;;6198153;23;20356;-83
2023/03/24 01:54:56;;;;;;;4.50;4.10;;;9.80;99.90;;;;;;6236565;23;20418;-84
2023/03/24 01:57:45;;;;;;;5.28;4.57;;;9.90;99.90;;;;;;6232231;23;20358;-83
2023/03/24 02:00:14;;;;;;;5.53;4.47;;;9.80;99.90;;;;;;6218729;23;20370;-83
2023/03/24 02:02:44;;;;;;;6.30;4.95;;;9.80;99.90;;;;;;6211688;23;20384;-83
2023/03/24 02:05:12;;;;;;;5.13;4.43;;;9.80;99.90;;;;;;6211267;23;20349;-84
2023/03/24 02:07:53;;;;;;;4.57;4.18;;;9.80;99.90;;;;;;6209603;23;20354;-84
2023/03/24 02:10:21;;;;;;;4.50;4.10;;;9.80;99.90;;;;;;6211183;23;20346;-83
2023/03/24 02:12:48;;;;;;;5.97;4.55;;;9.90;99.90;;;;;;6210072;23;20482;-84
2023/03/24 02:15:18;;;;;;;4.72;4.32;;;9.90;99.90;;;;;;6210089;23;21235;-84
2023/03/24 02:18:04;;;;;;;5.22;4.20;;;9.90;99.90;;;;;;6211114;23;20347;-85
2023/03/24 02:21:00;;;;;;;4.20;3.80;;;10.00;99.90;;;;;;6183650;23;20397;-85
2023/03/24 02:23:37;;;;;;;4.95;3.97;;;10.00;99.90;;;;;;6210630;23;20350;-85
2023/03/24 02:26:28;;;;;;;4.68;3.92;;;10.00;99.90;;;;;;6211179;23;20346;-85
2023/03/24 02:29:15;;;;;;;5.35;4.00;;;10.10;99.90;;;;;;6209729;23;20342;-83
2023/03/24 02:32:30;;;;;;;4.55;3.85;;;10.00;99.90;;;;;;6186556;23;20414;-84
2023/03/24 02:35:38;;;;;;;5.07;3.70;;;10.10;99.90;;;;;;6177733;23;20390;-85
2023/03/24 02:38:10;;;;;;;4.20;3.80;;;10.10;99.90;;;;;;6154048;23;20812;-85
2023/03/24 02:40:48;;;;;;;4.25;3.85;;;10.20;99.90;;;;;;6212113;23;20467;-85
2023/03/24 02:43:32;;;;;;;4.40;3.97;;;10.40;99.90;;;;;;6211115;23;20358;-85
2023/03/24 02:46:12;;;;;;;4.93;3.60;;;10.40;99.90;;;;;;6185618;23;20350;-84
2023/03/24 02:49:00;;;;;;;4.63;3.77;;;10.40;99.90;;;;;;6184411;23;20761;-85
2023/03/24 02:51:41;;;;;;;6.95;3.72;;;10.50;99.90;;;;;;6211920;23;20353;-84
2023/03/24 02:54:10;;;;;;;4.40;4.00;;;10.50;99.90;;;;;;6212596;23;20344;-83
2023/03/24 02:56:51;;;;;;;5.37;4.07;;;10.50;99.90;;;;;;6212017;23;20848;-85
2023/03/24 02:59:25;;;;;;;4.68;3.90;;;10.50;99.90;;;;;;6212621;23;20477;-83
2023/03/24 03:02:19;;;;;;;4.38;3.97;;;10.50;99.90;;;;;;6212089;23;20338;-84
2023/03/24 03:05:02;;;;;;;4.30;3.90;;;10.50;99.90;;;;;;6186317;23;20382;-84
2023/03/24 03:07:32;;;;;;;3.72;3.40;;;10.60;99.90;;;;;;6211993;23;20365;-82
2023/03/24 03:10:03;;;;;;;4.23;3.70;;;10.70;99.90;;;;;;6186508;23;20690;-84
2023/03/24 03:12:33;;;;;;;4.70;4.00;;;10.70;99.90;;;;;;6212082;23;20842;-82
2023/03/24 03:15:13;;;;;;;4.80;3.70;;;10.60;99.90;;;;;;6211568;23;20819;-82
2023/03/24 03:17:57;;;;;;;6.00;4.15;;;10.70;99.90;;;;;;6185340;23;20374;-82
2023/03/24 03:20:29;;;;;;;5.05;3.90;;;10.60;99.90;;;;;;6212606;23;20982;-84
2023/03/24 03:23:02;;;;;;;5.65;4.13;;;10.60;99.90;;;;;;6212930;23;20407;-85
2023/03/24 03:25:34;;;;;;;5.20;4.20;;;10.60;99.90;;;;;;6185454;23;20373;-82
2023/03/24 03:28:03;;;;;;;4.93;4.43;;;10.50;99.90;;;;;;6211937;23;20358;-85
2023/03/24 03:30:39;;;;;;;6.10;4.75;;;10.50;99.90;;;;;;6212715;23;20801;-83
2023/03/24 03:33:29;;;;;;;5.45;4.80;;;10.50;99.90;;;;;;6212968;23;20338;-84
2023/03/24 03:36:17;;;;;;;6.05;4.68;;;10.40;99.90;;;;;;6212360;23;20346;-83
2023/03/24 03:39:03;;;;;;;5.82;5.00;;;10.50;99.90;;;;;;6212287;23;20888;-84
2023/03/24 03:41:29;;;;;;;5.57;4.88;;;10.40;99.90;;;;;;6212299;23;20389;-83
2023/03/24 03:43:55;;;;;;;7.07;5.10;;;10.50;99.90;;;;;;6211264;23;20828;-82
2023/03/24 03:46:21;;;;;;;6.13;5.00;;;10.40;99.90;;;;;;6212538;23;20334;-84
2023/03/24 03:48:47;;;;;;;5.93;5.30;;;10.40;99.90;;;;;;6211959;23;20349;-85
2023/03/24 03:51:15;;;;;;;7.22;5.70;;;10.40;99.90;;;;;;6184700;23;20346;-82
2023/03/24 03:53:57;;;;;;;5.40;4.90;;;10.40;99.90;;;;;;6213066;23;20354;-82
2023/03/24 03:56:26;;;;;;;5.70;5.10;;;10.50;99.90;;;;;;6211844;23;20801;-83
2023/03/24 03:58:52;;;;;;;6.93;5.30;;;10.50;99.90;;;;;;6211748;23;20354;-82
2023/03/24 04:01:22;;;;;;;5.95;5.07;;;10.50;99.90;;;;;;6185170;23;20369;-81
2023/03/24 04:04:10;;;;;;;6.60;5.53;;;10.50;99.90;;;;;;6212341;23;20464;-82
2023/03/24 04:06:49;;;;;;;6.85;5.75;;;10.40;99.90;;;;;;6185091;23;20361;-84
2023/03/24 04:09:27;;;;;;;7.27;6.10;;;10.50;99.90;;;;;;6207064;23;20362;-83
2023/03/24 04:12:11;;;;;;;6.90;6.10;;;10.50;99.90;;;;;;6211874;23;20349;-84
2023/03/24 04:14:59;;;;;;;5.97;5.45;;;10.60;99.90;;;;;;6211038;23;20717;-83
2023/03/24 04:17:49;;;;;;;6.32;5.70;;;10.50;99.90;;;;;;6212038;23;20349;-83
2023/03/24 04:20:23;;;;;;;6.50;5.88;;;10.60;99.90;;;;;;6212680;23;20389;-81
2023/03/24 04:22:52;;;;;;;6.50;5.88;;;10.60;99.90;;;;;;6212702;23;20346;-83
2023/03/24 04:25:28;;;;;;;6.38;5.80;;;10.60;99.90;;;;;;6213378;23;20825;-82
2023/03/24 04:28:19;;;;;;;7.75;6.45;;;10.60;99.90;;;;;;6186112;23;20725;-82
2023/03/24 04:30:50;;;;;;;6.72;6.00;;;10.60;99.90;;;;;;6213698;23;20356;-81
2023/03/24 04:33:29;;;;;;;7.43;6.30;;;10.60;99.90;;;;;;6215283;23;20416;-82
2023/03/24 04:36:17;;;;;;;7.00;6.40;;;10.50;99.90;;;;;;6216344;23;20346;-84
2023/03/24 04:38:49;;;;;;;8.00;6.40;;;10.60;99.90;;;;;;6226635;23;20353;-83
2023/03/24 04:41:16;;;;;;;7.50;6.63;;;10.60;99.90;;;;;;6235601;23;20330;-81
2023/03/24 04:43:44;;;;;;;7.13;6.43;;;10.60;99.90;;;;;;6230161;23;20362;-82
2023/03/24 04:46:10;;;;;;;6.67;6.07;;;10.60;99.90;;;;;;6212410;23;20400;-83
2023/03/24 04:48:37;;;;;;;7.20;6.30;;;10.70;99.90;;;;;;6210965;23;20353;-82
2023/03/24 04:51:03;;;;;;;8.00;6.60;;;10.70;99.90;;;;;;6210312;23;20374;-83
2023/03/24 04:53:31;;;;;;;8.75;6.88;;;10.60;99.90;;;;;;6211140;23;20350;-84
2023/03/24 04:56:12;;;;;;;8.75;6.85;;;10.70;99.90;;;;;;6184539;23;20361;-83
2023/03/24 04:58:37;;;;;;;7.03;6.22;;;10.70;99.90;;;;;;6210923;23;20469;-84
2023/03/24 05:01:04;;;;;;;8.25;6.50;;;10.80;99.90;;;;;;6180987;23;20375;-83
2023/03/24 05:03:30;;;;;;;7.45;6.15;;;10.80;99.90;;;;;;6213631;23;20338;-83
2023/03/24 05:05:58;;;;;;;7.38;6.68;;;11.00;99.90;;;;;;6210778;23;20353;-82
2023/03/24 05:08:24;;;;;;;6.90;6.07;;;11.00;99.90;;;;;;6210505;23;20396;-84
2023/03/24 05:10:49;;;;;;;7.27;6.13;;;10.90;99.90;;;;;;6211574;23;20388;-82
2023/03/24 05:13:15;;;;;;;8.77;6.50;;;11.00;99.90;;;;;;6183315;23;20346;-82
2023/03/24 05:15:41;;;;;;;7.45;6.53;;;11.00;99.90;;;;;;6210781;23;20346;-82
2023/03/24 05:18:07;;;;;;;7.65;6.60;;;10.90;99.90;;;;;;6210717;23;20370;-83
2023/03/24 05:20:33;;;;;;;6.82;6.13;;;10.90;99.90;;;;;;6183732;23;20373;-82
2023/03/24 05:23:00;;;;;;;7.90;6.38;;;10.90;99.90;;;;;;6185116;23;20364;-83
2023/03/24 05:25:26;;;;;;;8.27;6.63;;;11.00;99.90;;;;;;6211213;23;20334;-83
2023/03/24 05:27:52;;;;;;;7.70;6.33;;;11.00;99.90;;;;;;6209714;23;20852;-83
2023/03/24 05:30:19;;;;;;;7.60;6.27;;;11.00;99.90;;;;;;6211595;23;20350;-81
2023/03/24 05:32:45;;;;;;;8.25;6.20;;;11.10;99.90;;;;;;6184476;23;20354;-82
2023/03/24 05:35:10;;;;;;;6.57;5.88;;;11.20;99.90;;;;;;6211179;23;20349;-82
2023/03/24 05:37:36;;;;;;;6.63;5.93;;;11.20;99.90;;;;;;6210654;23;20366;-85
2023/03/24 05:40:02;;;;;;;7.07;6.38;;;11.20;99.90;;;;;;6184577;23;20461;-84
2023/03/24 05:42:28;;;;;;;7.45;6.28;;;11.20;99.90;;;;;;6210703;23;20342;-84
2023/03/24 05:44:54;;;;;;;7.73;6.40;;;11.20;99.90;;;;;;6210611;23;20362;-84
2023/03/24 05:47:19;;;;;;;7.15;6.35;;;11.30;99.90;;;;;;6184359;23;21158;-84
2023/03/24 05:49:46;;;;;;;9.52;6.28;;;11.30;99.90;;;;;;6211044;23;20346;-83
2023/03/24 05:52:15;;;;;;;6.78;6.10;;;11.30;99.90;;;;;;6184431;23;20342;-83
2023/03/24 05:54:41;;;;;;;6.50;5.80;;;11.30;99.90;;;;;;6183927;23;20697;-83
2023/03/24 05:57:15;;;;;;;6.75;5.90;;;11.40;99.90;;;;;;6183475;23;20405;-83
2023/03/24 05:59:41;;;;;;;7.43;6.00;;;11.40;99.90;;;;;;6184020;23;20389;-84
2023/03/24 06:02:07;;;;;;;7.85;5.70;;;11.50;99.90;;;;;;6184497;23;20350;-84
2023/03/24 06:04:35;;;;;;;8.20;5.60;;;11.60;99.90;;;;;;6211274;23;20342;-81
2023/03/24 06:07:02;;;;;;;6.18;5.10;;;11.70;99.90;;;;;;6209548;23;20354;-84
2023/03/24 06:09:34;;;;;;;6.33;5.63;;;11.70;99.90;;;;;;6184820;23;20401;-85
2023/03/24 06:12:02;;;;;;;6.55;5.03;;;11.80;99.90;;;;;;6211391;23;20350;-84
2023/03/24 06:14:28;;;;;;;7.90;5.50;;;11.80;99.90;;;;;;6210836;23;20406;-83
2023/03/24 06:17:03;;;;;;;7.90;5.38;;;11.80;99.90;;;;;;6212256;23;20369;-85
2023/03/24 06:19:31;;;;;;;6.93;5.37;;;11.80;99.90;;;;;;6210005;23;20498;-83
2023/03/24 06:21:59;;;;;;;6.28;5.60;;;11.80;99.90;;;;;;6210951;23;20646;-83
2023/03/24 06:24:26;;;;;;;5.90;5.30;;;11.90;99.90;;;;;;6185578;23;20888;-84
2023/03/24 06:26:51;;;;;;;6.80;5.10;;;11.90;99.90;;;;;;6210898;23;20346;-83
2023/03/24 06:29:17;;;;;;;7.45;5.10;;;11.90;99.90;;;;;;6212036;23;20353;-82
2023/03/24 06:31:45;;;;;;;6.70;5.33;;;11.90;99.90;;;;;;6211506;23;20374;-84
2023/03/24 06:34:11;;;;;;;6.18;5.22;;;11.80;99.90;;;;;;6210983;23;20369;-84
2023/03/24 06:36:37;;;;;;;7.20;5.65;;;11.80;99.90;;;;;;6211976;23;20769;-81
2023/03/24 06:39:04;;;;;;;5.75;5.03;;;11.80;99.90;;;;;;6211858;23;20358;-83
2023/03/24 06:41:31;;;;;;;5.50;5.00;;;11.80;99.90;;;;;;6184653;23;20840;-83
2023/03/24 06:43:57;;;;;;;6.40;5.70;;;11.70;99.90;;;;;;6183992;23;20773;-82
2023/03/24 06:46:23;;;;;;;6.20;5.25;;;11.80;99.90;;;;;;6211011;23;20342;-81
2023/03/24 06:48:49;;;;;;;6.53;5.00;;;11.80;99.90;;;;;;6210985;23;20425;-84
2023/03/24 06:51:15;;;;;;;5.22;4.72;;;11.90;99.90;;;;;;6184077;23;20375;-84
2023/03/24 06:53:49;;;;;;;6.03;5.05;;;11.90;99.90;;;;;;6183798;23;20806;-85
2023/03/24 06:56:17;;;;;;;5.90;5.22;;;12.00;99.90;;;;;;6184455;23;20685;-85
2023/03/24 06:58:54;;;;;;;6.03;4.90;;;12.10;99.90;;;;;;6184123;23;20408;-84
2023/03/24 07:04:36;;;;;;;5.70;4.90;;;12.10;99.90;;;;;;6189109;23;20365;-85
2023/03/24 07:11:30;;;;;;;;;;;;;;;;;;;;;
2023/03/24 07:13:55;;;;;;;;;;;;;;;;;;;;;
2023/03/24 07:16:49;;;;;;;6.70;5.30;;;12.70;99.90;;;;;;6211217;23;20760;-84
2023/03/24 07:19:50;;;;;;;;;;;;;;;;;;;;;
2023/03/24 07:22:50;;;;;;;5.55;4.82;;;13.00;99.90;;;;;;6212603;23;20445;-85
2023/03/24 07:25:20;;;;;;;5.43;4.22;;;13.10;99.90;;;;;;6230320;23;20417;-82
2023/03/24 07:28:31;;;;;;;5.78;4.80;;;13.10;99.90;;;;;;6204004;23;20468;-84
2023/03/24 07:31:25;;;;;;;4.90;4.40;;;12.90;99.90;;;;;;6211362;23;20422;-83
2023/03/24 07:33:51;;;;;;;6.50;5.60;;;12.80;99.90;;;;;;6206472;23;20346;-82
2023/03/24 07:36:16;;;;;;;5.25;4.70;;;12.70;99.90;;;;;;6215046;23;20345;-84
2023/03/24 07:38:42;;;;;;;5.93;4.90;;;12.70;99.90;;;;;;6187661;23;20374;-81
2023/03/24 07:41:11;;;;;;;6.28;5.10;;;12.70;99.90;;;;;;6186690;23;20362;-82
2023/03/24 07:43:37;;;;;;;5.78;5.18;;;12.60;99.90;;;;;;6212788;23;20354;-87
2023/03/24 07:46:02;;;;;;;6.20;4.97;;;12.60;99.90;;;;;;6217088;23;20342;-85
2023/03/24 07:48:28;;;;;;;6.03;5.22;;;12.60;99.90;;;;;;6218110;23;20430;-85
2023/03/24 07:50:54;;;;;;;7.65;5.50;;;12.60;99.90;;;;;;6192883;23;20354;-84
2023/03/24 07:53:20;;;;;;;6.32;5.20;;;12.50;99.90;;;;;;6190195;23;20350;-85
2023/03/24 07:55:46;;;;;;;6.17;5.20;;;12.60;99.90;;;;;;6190468;23;20423;-85
2023/03/24 07:58:16;;;;;;;5.97;5.13;;;12.70;99.90;;;;;;6218564;23;20345;-85
2023/03/24 08:00:42;;;;;;;6.82;4.80;;;12.80;99.90;;;;;;6167668;23;20400;-85
2023/03/24 08:03:14;;;;;;;5.05;4.40;;;12.70;99.90;;;;;;6210230;23;20346;-87
2023/03/24 08:05:42;;;;;;;5.73;5.10;;;12.70;99.90;;;;;;6187822;23;20512;-86
2023/03/24 08:08:11;;;;;;;5.60;5.07;;;12.80;99.90;;;;;;6188656;23;20407;-86
2023/03/24 08:10:38;;;;;;;7.00;5.00;;;12.80;99.90;;;;;;6212256;23;20349;-86
2023/03/24 08:13:04;;;;;;;5.78;4.90;;;12.80;99.90;;;;;;6189101;23;20354;-87
2023/03/24 08:15:33;;;;;;;5.22;4.70;;;12.70;99.90;;;;;;6188589;23;20804;-87
2023/03/24 08:17:59;;;;;;;5.60;4.85;;;12.80;99.90;;;;;;6216115;23;20338;-84
2023/03/24 08:20:28;;;;;;;6.82;5.15;;;12.70;99.90;;;;;;6187682;23;20911;-85
2023/03/24 08:23:19;;;;;;;4.85;4.38;;;12.80;99.90;;;;;;6216022;23;20365;-85
2023/03/24 08:25:48;;;;;;;4.75;4.32;;;12.80;99.90;;;;;;6129169;23;20821;-83
2023/03/24 08:28:15;;;;;;;4.90;4.30;;;13.00;99.90;;;;;;6184586;23;20358;-83
2023/03/24 08:30:44;;;;;;;5.70;4.20;;;13.10;99.90;;;;;;6204692;23;20694;-82
2023/03/24 08:33:14;;;;;;;5.60;4.57;;;13.10;99.90;;;;;;6183893;23;20842;-83
2023/03/24 08:35:40;;;;;;;5.63;4.20;;;13.10;99.90;;;;;;6180993;23;20943;-82
2023/03/24 08:38:37;;;;;;;5.30;4.40;;;13.30;99.90;;;;;;6182145;23;20349;-82
2023/03/24 08:41:06;;;;;;;4.88;4.05;;;13.30;99.90;;;;;;6202735;23;20834;-82
2023/03/24 08:43:41;;;;;;;5.30;4.18;;;13.40;99.90;;;;;;6181733;23;20378;-82
2023/03/24 08:46:49;;;;;;;4.40;3.80;;;13.40;99.90;;;;;;6182532;23;20828;-84
2023/03/24 08:49:13;;;;;;;4.40;4.00;;;13.40;99.90;;;;;;6204245;23;20354;-83
2023/03/24 08:51:42;;;;;;;5.10;4.30;;;13.40;99.90;;;;;;6209750;23;20346;-82
2023/03/24 08:54:11;;;;;;;5.53;4.45;;;13.50;99.90;;;;;;6210510;23;20824;-83
2023/03/24 08:56:42;;;;;;;6.03;4.57;;;13.60;99.90;;;;;;6210528;23;20674;-83
2023/03/24 08:59:08;;;;;;;5.32;4.47;;;13.40;99.90;;;;;;6211386;23;20373;-81
2023/03/24 09:01:34;;;;;;;6.47;4.37;;;13.50;99.90;;;;;;6211694;23;20349;-83
2023/03/24 09:04:02;;;;;;;4.50;4.07;;;13.60;99.90;;;;;;6211604;23;20393;-82
2023/03/24 09:06:28;;;;;;;6.18;4.40;;;13.80;99.90;;;;;;6185004;23;20389;-81
2023/03/24 09:08:57;;;;;;;4.53;4.03;;;13.90;99.90;;;;;;6185701;23;20732;-82
2023/03/24 09:11:23;;;;;;;4.72;4.22;;;13.90;99.90;;;;;;6211982;23;20342;-82
2023/03/24 09:13:49;;;;;;;4.45;4.05;;;14.00;99.90;;;;;;6184866;23;20437;-80
2023/03/24 09:16:16;;;;;;;4.65;3.80;;;14.30;99.90;;;;;;6184674;23;20390;-78
2023/03/24 09:18:42;;;;;;;4.28;3.85;;;14.80;99.90;;;;;;6209008;23;20403;-77
2023/03/24 09:21:08;;;;;;;4.65;4.00;;;14.90;99.90;;;;;;6210671;23;20404;-80
2023/03/24 09:23:34;;;;;;;5.93;4.40;;;14.80;99.90;;;;;;6207794;23;20350;-82
2023/03/24 09:26:02;;;;;;;5.00;3.97;;;14.70;99.90;;;;;;6210404;23;20423;-83
2023/03/24 09:28:28;;;;;;;5.63;4.33;;;14.40;99.90;;;;;;6212186;23;20704;-81
2023/03/24 09:30:59;;;;;;;5.20;4.43;;;14.50;99.90;;;;;;6182633;23;20380;-83
2023/03/24 09:33:28;;;;;;;4.95;4.00;;;14.60;99.90;;;;;;6209183;23;20349;-83
2023/03/24 09:36:00;;;;;;;5.27;3.87;;;14.70;99.90;;;;;;6209873;23;20358;-84
2023/03/24 09:38:33;;;;;;;4.45;4.03;;;14.70;99.90;;;;;;6181149;23;20378;-83
2023/03/24 09:41:01;;;;;;;5.05;3.85;;;14.90;99.90;;;;;;6181285;23;20373;-83
2023/03/24 09:43:43;;;;;;;4.53;3.85;;;15.20;99.90;;;;;;6208434;23;20976;-83
2023/03/24 09:46:22;;;;;;;4.00;3.60;;;15.20;99.90;;;;;;6210109;23;20342;-83
2023/03/24 09:48:56;;;;;;;4.47;3.60;;;15.20;99.90;;;;;;6211760;23;20455;-80
2023/03/24 09:51:23;;;;;;;4.07;3.67;;;15.40;99.90;;;;;;6211696;23;20353;-82
2023/03/24 09:54:17;;;;;;;4.82;3.40;;;15.60;99.90;;;;;;6185232;23;20353;-84
2023/03/24 09:56:45;;;;;;;4.40;3.72;;;15.60;99.90;;;;;;6211498;23;20354;-83
2023/03/24 09:59:14;;;;;;;4.18;3.30;;;15.80;99.90;;;;;;6183656;23;20382;-83
2023/03/24 10:01:39;;;;;;;4.22;3.22;;;16.40;99.90;;;;;;6184011;23;20415;-82
2023/03/24 10:04:17;;;;;;;4.50;3.47;;;16.30;99.90;;;;;;6184526;23;20773;-81
2023/03/24 10:06:43;;;;;;;3.90;3.20;;;15.70;99.90;;;;;;6186083;23;20382;-81
2023/03/24 10:09:36;;;;;;;3.78;3.10;;;15.70;99.90;;;;;;6185495;23;20433;-81
2023/03/24 10:12:15;;;;;;;3.45;3.10;;;15.70;99.90;;;;;;6210396;23;20445;-80
2023/03/24 10:14:50;;;;;;;3.30;3.00;;;15.40;99.90;;;;;;6194166;23;20425;-81
2023/03/24 10:17:55;;;;;;;3.67;2.67;;;15.50;99.90;;;;;;6211001;23;20349;-82
2023/03/24 10:20:55;;;;;;;5.07;2.72;;;15.90;99.90;;;;;;6149070;23;20846;-81
2023/03/24 10:24:03;;;;;;;5.05;3.00;;;16.70;99.90;;;;;;6211207;23;20425;-84
2023/03/24 10:26:43;;;;;;;6.65;3.17;;;17.40;99.90;;;;;;6088283;23;20460;-82
2023/03/24 10:29:21;;;;;;;6.35;2.80;;;17.40;99.90;;;;;;6176024;23;20342;-82
2023/03/24 10:32:12;;;;;;;7.03;3.30;;;16.70;99.90;;;;;;6179404;23;20939;-83
2023/03/24 10:34:43;;;;;;;3.15;2.85;;;16.30;99.90;;;;;;6188827;23;20358;-83
2023/03/24 10:37:12;;;;;;;3.85;2.70;;;16.10;99.90;;;;;;6203880;23;20356;-82
2023/03/24 10:39:38;;;;;;;5.20;3.28;;;16.00;99.90;;;;;;6177867;23;20384;-82
2023/03/24 10:42:04;;;;;;;4.20;2.80;;;15.90;99.90;;;;;;6203073;23;20416;-83
2023/03/24 10:44:30;;;;;;;5.55;3.17;;;15.60;99.90;;;;;;6203964;23;20421;-82
2023/03/24 10:47:01;;;;;;;4.00;3.13;;;15.60;99.90;;;;;;6176271;23;20357;-84
2023/03/24 10:49:27;;;;;;;3.95;2.95;;;15.50;99.90;;;;;;6177147;23;20407;-83
2023/03/24 10:52:00;;;;;;;5.10;3.40;;;15.40;99.90;;;;;;6174387;23;20354;-82
2023/03/24 10:54:31;;;;;;;3.35;2.55;;;15.10;99.90;;;;;;6177376;23;20808;-83
2023/03/24 10:56:56;;;;;;;3.33;2.13;;;15.10;99.90;;;;;;6175348;23;20357;-84
2023/03/24 10:59:47;;;;;;;3.58;2.33;;;15.30;99.90;;;;;;6174396;23;20374;-82
2023/03/24 11:02:18;;;;;;;3.70;2.42;;;15.60;99.90;;;;;;6201971;23;20346;-82
2023/03/24 11:04:53;;;;;;;2.58;2.10;;;16.00;99.90;;;;;;6176583;23;20424;-83
2023/03/24 11:07:31;;;;;;;3.53;1.85;;;16.70;99.90;;;;;;6204745;23;20801;-83
2023/03/24 11:10:15;;;;;;;4.55;2.15;;;17.30;99.90;;;;;;6204940;23;20463;-82
2023/03/24 11:12:53;;;;;;;4.40;2.40;;;17.20;99.90;;;;;;6206250;23;20904;-82
2023/03/24 11:15:19;;;;;;;3.92;2.20;;;17.40;99.90;;;;;;6178753;23;20477;-82
2023/03/24 11:17:51;;;;;;;1.95;1.70;;;17.80;99.90;;;;;;6205107;23;20412;-83
2023/03/24 11:20:29;;;;;;;3.33;2.00;;;18.00;99.90;;;;;;6204130;23;20400;-82
2023/03/24 11:23:05;;;;;;;2.13;1.73;;;18.00;99.90;;;;;;6203080;23;20346;-83
2023/03/24 11:25:34;;;;;;;1.67;1.40;;;17.80;99.90;;;;;;6204983;23;20337;-83
2023/03/24 11:28:05;;;;;;;2.20;1.57;;;17.70;99.90;;;;;;6178044;23;20370;-83
2023/03/24 11:30:54;;;;;;;2.20;1.67;;;17.90;99.90;;;;;;6201425;23;20762;-83
2023/03/24 11:33:27;;;;;;;1.85;1.50;;;18.00;99.90;;;;;;6173331;23;20757;-83
2023/03/24 11:35:53;;;;;;;3.47;1.60;;;18.10;99.90;;;;;;6202509;23;20449;-83
2023/03/24 11:38:28;;;;;;;2.50;1.70;;;18.10;99.90;;;;;;6199910;23;20400;-83
2023/03/24 11:41:06;;;;;;;1.73;1.40;;;18.00;99.90;;;;;;6175150;23;20373;-83
2023/03/24 11:43:31;;;;;;;2.47;1.42;;;18.00;99.90;;;;;;6174627;23;20354;-83
2023/03/24 11:46:04;;;;;;;2.55;1.40;;;18.10;99.90;;;;;;6174463;23;20349;-83
2023/03/24 11:48:51;;;;;;;1.55;1.40;;;18.10;99.90;;;;;;6176686;23;20427;-83
2023/03/24 11:51:22;;;;;;;2.80;1.65;;;17.90;99.90;;;;;;6200488;23;20342;-83
2023/03/24 11:53:51;;;;;;;3.15;1.40;;;17.60;99.90;;;;;;6202810;23;20457;-83
2023/03/24 11:56:25;;;;;;;3.58;1.60;;;17.30;99.90;;;;;;6203666;23;21039;-83
2023/03/24 11:59:19;;;;;;;1.87;1.20;;;17.00;99.90;;;;;;6175204;23;20472;-83
2023/03/24 12:01:59;;;;;;;2.50;1.23;;;16.80;99.90;;;;;;6185826;23;20358;-80
2023/03/24 12:04:49;;;;;;;2.40;1.50;;;16.70;99.90;;;;;;6201456;23;20341;-83
2023/03/24 12:08:05;;;;;;;2.50;1.30;;;16.70;99.90;;;;;;6200824;23;20363;-82
2023/03/24 12:10:43;;;;;;;5.15;1.80;;;17.00;99.90;;;;;;6050979;23;20385;-83
2023/03/24 12:13:15;;;;;;;2.33;1.20;;;17.10;99.90;;;;;;6176614;23;20350;-83
2023/03/24 12:16:12;;;;;;;2.25;1.00;;;17.20;99.90;;;;;;6200544;23;20352;-82
2023/03/24 12:18:50;;;;;;;3.05;1.50;;;16.90;99.90;;;;;;6171483;23;20378;-81
2023/03/24 12:22:17;;;;;;;2.58;1.23;;;16.80;99.90;;;;;;6211737;23;20831;-85
2023/03/24 12:24:55;;;;;;;4.22;1.83;;;16.70;99.90;;;;;;6132066;23;20358;-83
2023/03/24 12:27:28;;;;;;;2.90;1.40;;;16.50;99.90;;;;;;6212153;23;20354;-83
2023/03/24 12:30:12;;;;;;;2.53;1.20;;;16.20;99.90;;;;;;6213562;23;20342;-82
2023/03/24 12:33:07;;;;;;;2.53;1.27;;;15.90;99.90;;;;;;6213773;23;20346;-86
2023/03/24 12:35:58;;;;;;;2.10;1.10;;;16.00;99.90;;;;;;6176196;23;20875;-82
2023/03/24 12:38:48;;;;;;;2.88;1.15;;;15.80;99.90;;;;;;6185188;23;20445;-83
2023/03/24 12:41:32;;;;;;;2.85;1.17;;;15.70;99.90;;;;;;6188128;23;20693;-84
2023/03/24 12:44:29;;;;;;;3.47;1.25;;;15.60;99.90;;;;;;6212167;23;20346;-85
2023/03/24 12:47:14;;;;;;;2.53;1.30;;;15.40;99.90;;;;;;6183539;23;20378;-84
2023/03/24 12:49:56;;;;;;;3.03;1.52;;;15.30;99.90;;;;;;6185438;23;20350;-84
2023/03/24 12:52:58;;;;;;;2.70;1.30;;;15.20;99.90;;;;;;6212736;23;20377;-85
2023/03/24 12:55:50;;;;;;;2.15;1.20;;;15.10;99.90;;;;;;6213110;23;20347;-81
2023/03/24 12:58:22;;;;;;;2.03;1.30;;;15.00;99.90;;;;;;6212429;23;20900;-84
2023/03/24 13:00:55;;;;;;;3.13;1.40;;;15.00;99.90;;;;;;6216405;23;20397;-84
2023/03/24 13:03:35;;;;;;;2.60;1.37;;;15.20;99.90;;;;;;6196021;23;20362;-84
2023/03/24 13:06:31;;;;;;;4.45;1.40;;;15.40;99.90;;;;;;6217336;23;20386;-83
2023/03/24 13:09:19;;;;;;;2.45;1.35;;;15.60;99.90;;;;;;6139588;23;20741;-84
2023/03/24 13:12:13;;;;;;;3.50;1.40;;;15.50;99.90;;;;;;6182273;23;20344;-83
2023/03/24 13:14:59;;;;;;;2.88;1.27;;;15.70;99.90;;;;;;6156341;23;20941;-83
2023/03/24 13:17:52;;;;;;;3.22;1.30;;;15.90;99.90;;;;;;6154132;23;20352;-84
2023/03/24 13:20:28;;;;;;;2.70;1.10;;;15.90;99.90;;;;;;6156343;23;20467;-85
2023/03/24 13:23:17;;;;;;;2.25;1.25;;;15.90;99.90;;;;;;6183870;23;20360;-85
2023/03/24 13:26:05;;;;;;;3.33;1.38;;;16.00;99.90;;;;;;6183468;23;20853;-84
2023/03/24 13:28:44;;;;;;;2.63;1.10;;;16.00;99.90;;;;;;6158828;23;20402;-84
2023/03/24 13:31:15;;;;;;;2.75;1.20;;;16.20;99.90;;;;;;6183954;23;20386;-83
2023/03/24 13:33:47;;;;;;;2.22;1.15;;;16.30;99.90;;;;;;6156404;23;20417;-84
2023/03/24 13:36:43;;;;;;;3.38;1.50;;;16.30;99.90;;;;;;6157689;23;20359;-83